TimeEET,TemperatureF,Dew PointF,Humidity,Sea Level PressureIn,VisibilityMPH,Wind Direction,Wind SpeedMPH,Gust SpeedMPH,PrecipitationIn,Events,Conditions,WindDirDegrees,DateUTC
12:20 AM,50.0,42.8,76,30.04,-9999.0,NNW,4.6,-,N/A,,Clear,340,2013-02-26 22:20:00
12:50 AM,50.0,42.8,76,30.04,-9999.0,North,4.6,-,N/A,,Clear,350,2013-02-26 22:50:00
1:20 AM,50.0,42.8,76,30.04,-9999.0,North,3.5,-,N/A,,Clear,350,2013-02-26 23:20:00
1:50 AM,50.0,42.8,76,30.01,-9999.0,NNW,5.8,-,N/A,,Clear,340,2013-02-26 23:50:00
2:00 AM,49,43,72,30.02,6,NNW,5.8,,,,,340,2013-02-27 00:00:00
2:20 AM,50.0,42.8,76,30.01,-9999.0,North,3.5,-,N/A,,Clear,10,2013-02-27 00:20:00
2:50 AM,51.8,41.0,67,30.01,-9999.0,North,3.5,-,N/A,,Clear,360,2013-02-27 00:50:00
3:20 AM,48.2,42.8,82,30.01,-9999.0,NNW,5.8,-,N/A,,Clear,330,2013-02-27 01:20:00
3:50 AM,48.2,42.8,82,30.01,-9999.0,NW,2.3,-,N/A,,Clear,310,2013-02-27 01:50:00
4:20 AM,48.2,42.8,82,29.98,-9999.0,NW,2.3,-,N/A,,Clear,310,2013-02-27 02:20:00
4:50 AM,48.2,42.8,82,29.98,-9999.0,NW,4.6,-,N/A,,Clear,310,2013-02-27 02:50:00
5:20 AM,48.2,42.8,82,29.98,-9999.0,NNW,2.3,-,N/A,,Clear,340,2013-02-27 03:20:00
5:50 AM,50.0,42.8,76,29.98,-9999.0,NW,2.3,-,N/A,,Clear,320,2013-02-27 03:50:00
6:20 AM,48.2,41.0,76,29.98,-9999.0,NW,3.5,-,N/A,,Clear,320,2013-02-27 04:20:00
6:50 AM,46.4,42.8,87,29.98,-9999.0,North,3.5,-,N/A,,Clear,360,2013-02-27 04:50:00
7:20 AM,50.0,44.6,82,29.98,-9999.0,North,3.5,-,N/A,,Clear,360,2013-02-27 05:20:00
7:50 AM,53.6,48.2,82,29.98,-9999.0,WNW,3.5,-,N/A,,Clear,300,2013-02-27 05:50:00
8:00 AM,53,47,75,29.99,6,WNW,3.5,,,,,300,2013-02-27 06:00:00
8:20 AM,57.2,50.0,77,29.98,-9999.0,NW,3.5,-,N/A,,Clear,310,2013-02-27 06:20:00
8:50 AM,60.8,48.2,63,29.98,-9999.0,NNE,2.3,-,N/A,,Clear,20,2013-02-27 06:50:00
9:20 AM,64.4,44.6,49,29.98,-9999.0,NE,8.1,-,N/A,,Clear,50,2013-02-27 07:20:00
9:50 AM,66.2,44.6,46,29.98,-9999.0,NE,8.1,-,N/A,,Clear,50,2013-02-27 07:50:00
10:20 AM,68.0,44.6,43,29.98,-9999.0,NE,6.9,-,N/A,,Clear,50,2013-02-27 08:20:00
10:50 AM,68.0,44.6,43,29.98,-9999.0,ENE,2.3,-,N/A,,Clear,60,2013-02-27 08:50:00
11:20 AM,69.8,42.8,38,29.95,-9999.0,ESE,4.6,-,N/A,,Clear,120,2013-02-27 09:20:00
11:50 AM,69.8,42.8,38,29.92,-9999.0,SE,2.3,-,N/A,,Clear,140,2013-02-27 09:50:00
12:20 PM,69.8,44.6,40,29.92,-9999.0,SE,2.3,-,N/A,,Clear,140,2013-02-27 10:20:00
12:50 PM,71.6,42.8,35,29.89,-9999.0,South,2.3,-,N/A,,Clear,170,2013-02-27 10:50:00
1:20 PM,71.6,42.8,35,29.89,-9999.0,South,4.6,-,N/A,,Clear,170,2013-02-27 11:20:00
1:50 PM,71.6,42.8,35,29.89,-9999.0,South,4.6,-,N/A,,Clear,190,2013-02-27 11:50:00
2:00 PM,72,44,25,29.89,6,South,4.6,,,,,190,2013-02-27 12:00:00
2:20 PM,71.6,42.8,35,29.89,-9999.0,South,9.2,-,N/A,,Clear,190,2013-02-27 12:20:00
2:50 PM,71.6,44.6,38,29.86,-9999.0,South,8.1,-,N/A,,Clear,190,2013-02-27 12:50:00
3:20 PM,71.6,48.2,43,29.86,-9999.0,SSW,10.4,-,N/A,,Clear,200,2013-02-27 13:20:00
3:50 PM,69.8,46.4,43,29.86,-9999.0,SSW,10.4,-,N/A,,Clear,200,2013-02-27 13:50:00
4:20 PM,68.0,46.4,46,29.86,-9999.0,SSW,10.4,-,N/A,,Clear,200,2013-02-27 14:20:00
4:50 PM,66.2,48.2,52,29.86,-9999.0,SSW,10.4,-,N/A,,Clear,200,2013-02-27 14:50:00
5:20 PM,62.6,48.2,59,29.86,-9999.0,SW,9.2,-,N/A,,Clear,230,2013-02-27 15:20:00
5:50 PM,60.8,48.2,63,29.86,-9999.0,SW,8.1,-,N/A,,Clear,220,2013-02-27 15:50:00
6:20 PM,59.0,50.0,72,29.86,-9999.0,SW,8.1,-,N/A,,Clear,220,2013-02-27 16:20:00
6:50 PM,60.8,50.0,68,29.86,-9999.0,West,2.3,-,N/A,,Clear,260,2013-02-27 16:50:00
7:20 PM,59.0,50.0,72,29.86,-9999.0,WSW,5.8,-,N/A,,Clear,240,2013-02-27 17:20:00
7:50 PM,59.0,50.0,72,29.86,-9999.0,SSW,2.3,-,N/A,,Clear,200,2013-02-27 17:50:00
8:00 PM,59,50,64,29.87,6,SW,2.3,,,,Clear,220,2013-02-27 18:00:00
8:20 PM,59.0,51.8,77,29.86,-9999.0,ESE,2.3,-,N/A,,Clear,120,2013-02-27 18:20:00
8:50 PM,57.2,51.8,82,29.86,-9999.0,East,2.3,-,N/A,,Clear,90,2013-02-27 18:50:00
9:20 PM,57.2,51.8,82,29.86,6.2,ESE,3.5,-,N/A,,Mostly Cloudy,120,2013-02-27 19:20:00
9:50 PM,57.2,51.8,82,29.86,6.2,SE,5.8,-,N/A,,Mostly Cloudy,140,2013-02-27 19:50:00
10:20 PM,57.2,53.6,88,29.86,6.2,ESE,4.6,-,N/A,,Mostly Cloudy,110,2013-02-27 20:20:00
10:50 PM,57.2,53.6,88,29.86,6.2,East,4.6,-,N/A,,Mostly Cloudy,100,2013-02-27 20:50:00
11:20 PM,57.2,51.8,82,29.86,6.2,East,3.5,-,N/A,,Mostly Cloudy,100,2013-02-27 21:20:00
11:50 PM,57.2,51.8,82,29.83,6.2,East,5.8,-,N/A,,Mostly Cloudy,100,2013-02-27 21:50:00